createdAt,value
2022-12-11T00:00:39.068Z,100857.53
2022-12-11T00:03:41.967Z,100855.75
2022-12-11T00:06:44.707Z,100855.72
2022-12-11T00:09:47.425Z,100852.28
2022-12-11T00:12:51.451Z,100854.03
2022-12-11T00:15:54.113Z,100862.72
2022-12-11T00:18:56.813Z,100859.22
2022-12-11T00:21:59.468Z,100857.47
2022-12-11T00:25:02.168Z,100852.25
2022-12-11T00:28:06.276Z,100853.09
2022-12-11T00:31:10.776Z,100860.97
2022-12-11T00:34:13.675Z,100856.63
2022-12-11T00:37:16.474Z,100850.53
2022-12-11T00:40:19.251Z,100853.13
2022-12-11T00:43:23.297Z,100857.47
2022-12-11T00:46:25.982Z,100859.22
2022-12-11T00:49:28.860Z,100854.00
2022-12-11T00:52:31.513Z,100854.84
2022-12-11T00:55:38.725Z,100854.88
2022-12-11T00:58:42.945Z,100857.50
2022-12-11T01:01:45.711Z,100854.91
2022-12-11T01:04:48.404Z,100860.19
2022-12-11T01:07:51.156Z,100859.25
2022-12-11T01:11:02.462Z,100860.09
2022-12-11T01:14:06.629Z,100857.50
2022-12-11T01:17:09.278Z,100863.59
2022-12-11T01:20:12.761Z,100854.88
2022-12-11T01:23:15.520Z,100866.19
2022-12-11T01:26:18.686Z,100856.63
2022-12-11T01:29:22.740Z,100860.09
2022-12-11T01:32:25.464Z,100862.69
2022-12-11T01:35:29.018Z,100852.22
2022-12-11T01:38:31.707Z,100858.34
2022-12-11T01:41:34.415Z,100857.47
2022-12-11T01:45:19.643Z,100865.31
2022-12-11T01:48:26.483Z,100867.09
2022-12-11T01:51:32.166Z,100867.94
2022-12-11T01:54:36.322Z,100872.31
2022-12-11T01:57:42.299Z,100875.78
2022-12-11T02:00:45.091Z,100866.22
2022-12-11T02:03:49.585Z,100868.81
2022-12-11T02:06:53.319Z,100861.84
2022-12-11T02:09:56.019Z,100861.84
2022-12-11T02:13:04.816Z,100856.63
2022-12-11T02:16:16.821Z,100856.59
2022-12-11T02:19:38.249Z,100849.66
2022-12-11T02:22:58.466Z,100851.38
2022-12-11T02:26:13.199Z,100849.69
2022-12-11T02:29:23.893Z,100852.28
2022-12-11T02:32:31.371Z,100846.16
2022-12-11T02:35:38.938Z,100850.53
2022-12-11T02:38:46.792Z,100853.13
2022-12-11T02:41:52.339Z,100854.91
2022-12-11T02:45:00.078Z,100854.97
2022-12-11T02:48:06.555Z,100840.97
2022-12-11T02:51:11.431Z,100842.69
2022-12-11T02:54:20.537Z,100839.22
2022-12-11T02:57:28.792Z,100836.59
2022-12-11T03:00:33.008Z,100842.69
2022-12-11T03:03:35.637Z,100844.44
2022-12-11T03:06:44.275Z,100847.91
2022-12-11T03:09:48.509Z,100847.91
2022-12-11T03:12:55.715Z,100851.41
2022-12-11T03:16:11.920Z,100849.66
2022-12-11T03:19:23.445Z,100850.47
2022-12-11T03:22:33.689Z,100858.31
2022-12-11T03:25:45.734Z,100851.41
2022-12-11T03:28:50.586Z,100846.09
2022-12-11T03:31:59.433Z,100849.59
2022-12-11T03:35:06.329Z,100848.72
2022-12-11T03:38:14.654Z,100845.25
2022-12-11T03:41:20.211Z,100847.00
2022-12-11T03:44:25.103Z,100851.38
2022-12-11T03:47:30.998Z,100846.19
2022-12-11T03:50:36.470Z,100846.16
2022-12-11T03:53:40.107Z,100849.63
2022-12-11T03:56:45.122Z,100846.09
2022-12-11T03:59:48.361Z,100853.13
2022-12-11T04:03:12.710Z,100845.28
2022-12-11T04:06:15.810Z,100841.78
2022-12-11T04:09:18.498Z,100834.78
2022-12-11T04:12:21.266Z,100832.16
2022-12-11T04:15:23.868Z,100835.63
2022-12-11T04:18:45.227Z,100826.03
2022-12-11T04:22:05.449Z,100826.06
2022-12-11T04:25:09.649Z,100825.22
2022-12-11T04:28:12.531Z,100826.94
2022-12-11T04:31:16.039Z,100829.59
2022-12-11T04:34:20.087Z,100825.16
2022-12-11T04:37:22.695Z,100822.59
2022-12-11T04:40:25.632Z,100826.00
2022-12-11T04:43:28.528Z,100827.75
2022-12-11T04:46:31.568Z,100830.44
2022-12-11T04:49:35.551Z,100828.72
2022-12-11T04:52:38.161Z,100826.94
2022-12-11T04:55:40.799Z,100823.41
2022-12-11T04:58:45.124Z,100827.75
2022-12-11T05:01:47.844Z,100827.81
2022-12-11T05:04:51.999Z,100822.59
2022-12-11T05:07:54.607Z,100821.72
2022-12-11T05:10:58.073Z,100826.91
2022-12-11T05:14:00.639Z,100814.78
2022-12-11T05:17:03.284Z,100818.28
2022-12-11T05:20:09.389Z,100821.75
2022-12-11T05:23:11.977Z,100820.00
2022-12-11T05:26:17.363Z,100818.25
2022-12-11T05:29:19.980Z,100818.25
2022-12-11T05:32:22.640Z,100820.94
2022-12-11T05:35:26.607Z,100813.13
2022-12-11T05:38:29.263Z,100806.16
2022-12-11T05:41:33.504Z,100811.38
2022-12-11T05:44:36.162Z,100814.03
2022-12-11T05:47:38.869Z,100816.66
2022-12-11T05:50:42.818Z,100807.88
2022-12-11T05:53:47.199Z,100801.81
2022-12-11T05:56:51.364Z,100809.72
2022-12-11T05:59:53.948Z,100813.19
2022-12-11T06:02:56.584Z,100813.19
2022-12-11T06:06:02.739Z,100808.81
2022-12-11T06:09:06.438Z,100821.88
2022-12-11T06:12:09.012Z,100824.50
2022-12-11T06:15:12.137Z,100829.72
2022-12-11T06:18:14.877Z,100831.47
2022-12-11T06:21:20.782Z,100827.97
2022-12-11T06:24:23.389Z,100829.72
2022-12-11T06:27:25.953Z,100829.72
2022-12-11T06:30:38.283Z,100821.00
2022-12-11T06:33:42.185Z,100835.81
2022-12-11T06:36:46.108Z,100829.69
2022-12-11T06:39:48.700Z,100833.13
2022-12-11T06:42:51.303Z,100823.59
2022-12-11T06:45:55.911Z,100824.41
2022-12-11T06:49:01.815Z,100823.53
2022-12-11T06:52:06.545Z,100820.94
2022-12-11T06:55:09.945Z,100823.53
2022-12-11T06:58:12.888Z,100832.22
2022-12-11T07:01:18.395Z,100828.69
2022-12-11T07:04:24.597Z,100836.50
2022-12-11T07:07:28.566Z,100832.22
2022-12-11T07:10:31.196Z,100844.34
2022-12-11T07:13:34.421Z,100849.56
2022-12-11T07:16:37.536Z,100849.53
2022-12-11T07:19:40.710Z,100852.97
2022-12-11T07:22:46.846Z,100861.69
2022-12-11T07:25:49.593Z,100862.56
2022-12-11T07:28:52.315Z,100869.44
2022-12-11T07:31:55.028Z,100879.91
2022-12-11T07:34:57.699Z,100891.09
2022-12-11T07:38:01.621Z,100884.16
2022-12-11T07:41:05.280Z,100878.16
2022-12-11T07:44:07.876Z,100878.13
2022-12-11T07:47:10.456Z,100879.00
2022-12-11T07:50:13.143Z,100875.47
2022-12-11T07:53:17.113Z,100875.44
2022-12-11T07:56:20.274Z,100861.56
2022-12-11T07:59:22.910Z,100860.75
2022-12-11T08:02:25.545Z,100865.09
2022-12-11T08:05:28.395Z,100870.34
2022-12-11T08:08:32.543Z,100867.69
2022-12-11T08:11:35.541Z,100861.59
2022-12-11T08:14:38.166Z,100861.53
2022-12-11T08:17:40.842Z,100860.72
2022-12-11T08:20:43.415Z,100861.56
2022-12-11T08:23:47.564Z,100861.59
2022-12-11T08:26:50.270Z,100870.31
2022-12-11T08:29:52.838Z,100861.59
2022-12-11T08:32:55.429Z,100865.13
2022-12-11T08:35:58.524Z,100854.66
2022-12-11T08:39:02.479Z,100855.50
2022-12-11T08:42:05.283Z,100849.44
2022-12-11T08:45:09.447Z,100862.56
2022-12-11T08:48:12.388Z,100855.56
2022-12-11T08:51:17.623Z,100854.69
2022-12-11T08:54:21.551Z,100853.00
2022-12-11T08:57:24.134Z,100847.75
2022-12-11T09:00:26.737Z,100839.09
2022-12-11T09:03:29.309Z,100839.19
2022-12-11T09:06:34.288Z,100842.66
2022-12-11T09:09:38.229Z,100842.69
2022-12-11T09:12:41.476Z,100842.72
2022-12-11T09:15:44.246Z,100843.59
2022-12-11T09:18:47.453Z,100838.38
2022-12-11T09:21:50.099Z,100831.44
2022-12-11T09:24:54.029Z,100833.16
2022-12-11T09:27:56.618Z,100834.03
2022-12-11T09:30:59.643Z,100828.81
2022-12-11T09:34:04.916Z,100831.44
2022-12-11T09:37:07.497Z,100832.31
2022-12-11T09:40:13.759Z,100821.88
2022-12-11T09:43:37.269Z,100827.09
2022-12-11T09:46:41.627Z,100819.28
2022-12-11T09:49:46.593Z,100823.63
2022-12-11T09:52:58.817Z,100818.41
2022-12-11T09:56:08.315Z,100816.69
2022-12-11T09:59:22.775Z,100822.78
2022-12-11T10:02:40.899Z,100823.63
2022-12-11T10:05:51.243Z,100822.75
2022-12-11T10:09:04.200Z,100820.16
2022-12-11T10:12:21.704Z,100815.81
2022-12-11T10:15:40.766Z,100820.13
2022-12-11T10:18:43.687Z,100814.06
2022-12-11T10:21:47.632Z,100814.06
2022-12-11T10:25:10.635Z,100809.69
2022-12-11T10:28:17.394Z,100806.16
2022-12-11T10:31:24.130Z,100800.94
2022-12-11T10:34:35.229Z,100795.72
2022-12-11T10:37:37.884Z,100778.28
2022-12-11T10:40:43.790Z,100780.94
2022-12-11T10:43:49.983Z,100778.16
2022-12-11T10:47:03.949Z,100776.19
2022-12-11T10:50:07.064Z,100780.25
2022-12-11T10:53:21.380Z,100777.38
2022-12-11T10:56:29.228Z,100770.97
2022-12-11T10:59:37.543Z,100766.94
2022-12-11T11:02:41.885Z,100774.44
2022-12-11T11:05:49.242Z,100776.09
2022-12-11T11:08:53.764Z,100767.81
2022-12-11T11:11:56.366Z,100777.50
2022-12-11T11:15:05.636Z,100769.78
2022-12-11T11:18:13.557Z,100778.59
2022-12-11T11:21:17.775Z,100779.31
2022-12-11T11:24:28.757Z,100779.50
2022-12-11T11:27:36.930Z,100775.63
2022-12-11T11:30:42.867Z,100768.84
2022-12-11T11:33:52.308Z,100765.44
2022-12-11T11:37:00.899Z,100767.31
2022-12-11T11:40:09.937Z,100760.31
2022-12-11T11:43:19.968Z,100756.88
2022-12-11T11:46:27.161Z,100755.16
2022-12-11T11:49:45.469Z,100746.47
2022-12-11T11:52:53.029Z,100752.59
2022-12-11T11:56:04.016Z,100741.41
2022-12-11T11:59:15.125Z,100741.31
2022-12-11T12:02:20.853Z,100744.78
2022-12-11T12:05:39.282Z,100746.63
2022-12-11T12:08:47.560Z,100743.91
2022-12-11T12:11:57.334Z,100743.00
2022-12-11T12:15:11.166Z,100738.63
2022-12-11T12:18:26.047Z,100743.78
2022-12-11T12:21:35.205Z,100749.09
2022-12-11T12:24:48.234Z,100748.03
2022-12-11T12:28:00.501Z,100742.88
2022-12-11T12:31:18.112Z,100743.72
2022-12-11T12:34:37.743Z,100741.75
2022-12-11T12:37:52.018Z,100744.28
2022-12-11T12:41:03.818Z,100744.25
2022-12-11T12:44:16.809Z,100741.69
2022-12-11T12:47:20.859Z,100730.34
2022-12-11T12:50:28.303Z,100737.22
2022-12-11T12:53:35.699Z,100733.78
2022-12-11T12:56:40.575Z,100733.78
2022-12-11T12:59:43.163Z,100730.28
2022-12-11T13:02:51.201Z,100737.31
2022-12-11T13:06:00.378Z,100732.06
2022-12-11T13:09:17.003Z,100736.38
2022-12-11T13:12:32.915Z,100734.66
2022-12-11T13:15:40.885Z,100739.13
2022-12-11T13:18:45.218Z,100726.00
2022-12-11T13:21:58.269Z,100724.25
2022-12-11T13:25:04.739Z,100719.75
2022-12-11T13:28:08.675Z,100707.59
2022-12-11T13:31:33.612Z,100711.22
2022-12-11T13:34:38.923Z,100713.78
2022-12-11T13:37:45.196Z,100713.03
2022-12-11T13:40:53.120Z,100716.56
2022-12-11T13:43:58.389Z,100724.50
2022-12-11T13:47:04.514Z,100730.50
2022-12-11T13:50:23.888Z,100735.63
2022-12-11T13:53:28.214Z,100742.66
2022-12-11T13:56:30.817Z,100737.47
2022-12-11T13:59:35.845Z,100737.31
2022-12-11T14:02:42.437Z,100738.91
2022-12-11T14:05:45.234Z,100745.97
2022-12-11T14:08:53.873Z,100744.97
2022-12-11T14:11:59.073Z,100747.53
2022-12-11T14:15:04.504Z,100751.13
2022-12-11T14:18:07.279Z,100752.97
2022-12-11T14:21:19.981Z,100759.94
2022-12-11T14:24:24.257Z,100760.00
2022-12-11T14:27:28.662Z,100750.31
2022-12-11T14:30:34.237Z,100752.06
2022-12-11T14:33:42.003Z,100759.22
2022-12-11T14:36:46.062Z,100754.78
2022-12-11T14:39:57.777Z,100759.31
2022-12-11T14:43:03.962Z,100749.63
2022-12-11T14:46:11.954Z,100755.75
2022-12-11T14:49:20.240Z,100753.97
2022-12-11T14:52:30.172Z,100760.13
2022-12-11T14:55:36.513Z,100759.22
2022-12-11T14:58:43.279Z,100763.56
2022-12-11T15:01:46.214Z,100763.63
2022-12-11T15:05:06.251Z,100764.50
2022-12-11T15:08:24.623Z,100768.13
2022-12-11T15:11:32.881Z,100763.63
2022-12-11T15:14:35.728Z,100768.06
2022-12-11T15:17:38.352Z,100768.09
2022-12-11T15:20:41.038Z,100766.28
2022-12-11T15:23:52.353Z,100764.56
2022-12-11T15:27:00.978Z,100761.91
2022-12-11T15:30:03.854Z,100769.75
2022-12-11T15:33:20.260Z,100765.50
2022-12-11T15:36:26.541Z,100768.13
2022-12-11T15:39:29.141Z,100761.06
2022-12-11T15:42:36.220Z,100771.50
2022-12-11T15:45:38.800Z,100764.56
2022-12-11T15:48:41.439Z,100768.06
2022-12-11T15:51:44.012Z,100763.72
2022-12-11T15:54:46.641Z,100765.53
2022-12-11T15:57:55.158Z,100760.22
2022-12-11T16:00:59.003Z,100762.88
2022-12-11T16:04:05.187Z,100756.84
2022-12-11T16:07:16.257Z,100746.41
2022-12-11T16:10:20.504Z,100751.66
2022-12-11T16:13:24.443Z,100755.00
2022-12-11T16:16:27.032Z,100748.06
2022-12-11T16:19:29.631Z,100757.69
2022-12-11T16:22:32.237Z,100757.81
2022-12-11T16:25:35.093Z,100759.50
2022-12-11T16:28:39.018Z,100760.34
2022-12-11T16:31:41.604Z,100761.19
2022-12-11T16:34:44.837Z,100762.06
2022-12-11T16:37:50.172Z,100759.50
2022-12-11T16:41:00.763Z,100755.06
2022-12-11T16:44:04.897Z,100747.22
2022-12-11T16:47:07.592Z,100755.09
2022-12-11T16:50:10.922Z,100751.69
2022-12-11T16:53:15.294Z,100761.25
2022-12-11T16:56:17.880Z,100759.47
2022-12-11T16:59:21.849Z,100763.84
2022-12-11T17:02:24.584Z,100774.31
2022-12-11T17:05:27.218Z,100764.63
2022-12-11T17:08:29.874Z,100767.25
2022-12-11T17:11:32.495Z,100769.94
2022-12-11T17:14:36.549Z,100768.25
2022-12-11T17:17:39.216Z,100768.19
2022-12-11T17:20:42.655Z,100770.78
2022-12-11T17:23:45.803Z,100770.81
2022-12-11T17:26:48.456Z,100769.03
2022-12-11T17:29:52.384Z,100770.81
2022-12-11T17:32:54.963Z,100765.63
2022-12-11T17:36:00.306Z,100767.31
2022-12-11T17:39:02.982Z,100764.72
2022-12-11T17:42:06.308Z,100767.34
2022-12-11T17:45:11.597Z,100756.88
2022-12-11T17:48:15.256Z,100760.28
2022-12-11T17:51:23.573Z,100762.94
2022-12-11T17:54:26.236Z,100762.13
2022-12-11T17:57:28.820Z,100763.84
2022-12-11T18:00:33.497Z,100761.25
2022-12-11T18:03:36.898Z,100763.06
2022-12-11T18:06:39.595Z,100766.50
2022-12-11T18:09:42.501Z,100763.03
2022-12-11T18:12:45.245Z,100766.50
2022-12-11T18:16:00.418Z,100767.38
2022-12-11T18:19:03.111Z,100772.59
2022-12-11T18:22:05.693Z,100774.28
2022-12-11T18:25:10.155Z,100774.31
2022-12-11T18:28:14.319Z,100775.16
2022-12-11T18:31:19.487Z,100781.28
2022-12-11T18:34:22.150Z,100774.34
2022-12-11T18:37:27.884Z,100779.59
2022-12-11T18:40:30.905Z,100778.75
2022-12-11T18:43:33.597Z,100769.13
2022-12-11T18:46:39.240Z,100769.97
2022-12-11T18:49:41.902Z,100765.59
2022-12-11T18:52:44.470Z,100761.28
2022-12-11T18:55:49.793Z,100758.66
2022-12-11T18:58:53.074Z,100763.06
2022-12-11T19:01:57.034Z,100768.22
2022-12-11T19:04:59.672Z,100777.81
2022-12-11T19:08:02.495Z,100773.53
2022-12-11T19:11:05.394Z,100782.22
2022-12-11T19:14:09.294Z,100782.22
2022-12-11T19:17:13.271Z,100777.81
2022-12-11T19:20:47.651Z,100780.50
2022-12-11T19:23:38.594Z,100770.91
2022-12-11T19:26:41.240Z,100780.44
2022-12-11T19:29:43.834Z,100783.06
2022-12-11T19:32:47.841Z,100783.97
2022-12-11T19:35:50.474Z,100778.78
2022-12-11T19:38:57.928Z,100783.00
2022-12-11T19:42:03.722Z,100791.81
2022-12-11T19:45:07.455Z,100781.38
2022-12-11T19:48:11.639Z,100774.31
2022-12-11T19:51:16.620Z,100779.56
2022-12-11T19:54:19.330Z,100781.34
2022-12-11T19:57:21.907Z,100778.75
2022-12-11T20:00:24.578Z,100767.34
2022-12-11T20:03:28.995Z,100767.31
2022-12-11T20:06:33.491Z,100770.00
2022-12-11T20:09:36.100Z,100775.28
2022-12-11T20:12:38.712Z,100772.53
2022-12-11T20:15:41.581Z,100772.47
2022-12-11T20:18:46.181Z,100769.03
2022-12-11T20:21:48.993Z,100779.59
2022-12-11T20:24:51.776Z,100777.81
2022-12-11T20:27:55.570Z,100774.34
2022-12-11T20:31:04.743Z,100783.06
2022-12-11T20:34:08.880Z,100782.22
2022-12-11T20:37:11.494Z,100785.69
2022-12-11T20:40:14.306Z,100790.09
2022-12-11T20:43:17.086Z,100783.97
2022-12-11T20:46:20.298Z,100789.16
2022-12-11T20:49:24.334Z,100785.63
2022-12-11T20:52:27.930Z,100792.59
2022-12-11T20:55:30.518Z,100786.53
2022-12-11T20:58:33.104Z,100784.69
2022-12-11T21:01:35.852Z,100776.09
2022-12-11T21:04:41.240Z,100785.63
2022-12-11T21:07:43.856Z,100784.78
2022-12-11T21:10:47.272Z,100784.81
2022-12-11T21:13:50.488Z,100777.72
2022-12-11T21:16:53.156Z,100768.97
2022-12-11T21:19:57.138Z,100774.25
2022-12-11T21:22:59.874Z,100776.94
2022-12-11T21:26:03.121Z,100782.16
2022-12-11T21:29:05.758Z,100785.59
2022-12-11T21:32:08.429Z,100791.81
2022-12-11T21:35:13.429Z,100784.03
2022-12-11T21:38:16.239Z,100780.47
2022-12-11T21:41:21.483Z,100774.41
2022-12-11T21:47:46.654Z,100776.19
2022-12-11T21:50:51.553Z,100779.66
2022-12-11T21:53:54.583Z,100777.88
2022-12-11T21:56:57.642Z,100768.31
2022-12-11T22:00:00.818Z,100775.28
2022-12-11T22:03:03.426Z,100785.75
2022-12-11T22:06:07.978Z,100783.13
2022-12-11T22:09:12.345Z,100784.94
2022-12-11T22:12:23.049Z,100781.38
2022-12-11T22:15:25.649Z,100789.22
2022-12-11T22:18:28.409Z,100790.16
2022-12-11T22:21:32.411Z,100802.34
2022-12-11T22:24:34.997Z,100805.91
2022-12-11T22:27:37.579Z,100797.16
2022-12-11T22:30:40.264Z,100791.94
2022-12-11T22:33:43.084Z,100797.16
2022-12-11T22:36:47.036Z,100796.25
2022-12-11T22:39:49.689Z,100790.19
2022-12-11T22:42:52.316Z,100791.84
2022-12-11T22:45:55.105Z,100794.47
2022-12-11T22:48:59.354Z,100793.56
2022-12-11T22:52:03.302Z,100790.09
2022-12-11T22:55:07.148Z,100781.34
2022-12-11T22:58:09.746Z,100783.09
2022-12-11T23:01:14.874Z,100782.19
2022-12-11T23:04:17.487Z,100793.63
2022-12-11T23:07:21.439Z,100783.13
2022-12-11T23:10:24.037Z,100785.69
2022-12-11T23:13:26.662Z,100778.75
2022-12-11T23:16:29.731Z,100781.38
2022-12-11T23:19:32.535Z,100785.78
2022-12-11T23:22:36.479Z,100785.81
2022-12-11T23:25:39.124Z,100783.13
2022-12-11T23:28:42.563Z,100777.91
2022-12-11T23:31:45.188Z,100778.72
2022-12-11T23:34:47.785Z,100782.28
2022-12-11T23:37:51.745Z,100780.53
2022-12-11T23:40:55.081Z,100781.34
2022-12-11T23:43:57.656Z,100785.69
2022-12-11T23:47:00.516Z,100789.13
2022-12-11T23:50:03.094Z,100783.94
2022-12-11T23:53:07.333Z,100791.00
2022-12-11T23:56:14.765Z,100797.91
2022-12-11T23:59:17.353Z,100790.09
